sensor_id;sensor_type;location;lat;lon;timestamp;P1;durP1;ratioP1;P2;durP2;ratioP2
39738;SDS011;25422;48.286;8.484;2024-03-08T00:00:13;76.15;;;38.45;;
39738;SDS011;25422;48.286;8.484;2024-03-08T00:02:40;81.80;;;38.22;;
39738;SDS011;25422;48.286;8.484;2024-03-08T00:05:07;63.45;;;32.63;;
39738;SDS011;25422;48.286;8.484;2024-03-08T00:07:34;82.43;;;39.05;;
39738;SDS011;25422;48.286;8.484;2024-03-08T00:10:01;75.10;;;35.78;;
39738;SDS011;25422;48.286;8.484;2024-03-08T00:12:27;82.80;;;37.97;;
39738;SDS011;25422;48.286;8.484;2024-03-08T00:14:53;76.43;;;36.53;;
39738;SDS011;25422;48.286;8.484;2024-03-08T00:17:20;75.78;;;34.65;;
39738;SDS011;25422;48.286;8.484;2024-03-08T00:19:48;75.35;;;35.40;;
39738;SDS011;25422;48.286;8.484;2024-03-08T00:22:15;75.55;;;35.15;;
39738;SDS011;25422;48.286;8.484;2024-03-08T00:24:41;77.72;;;34.85;;
39738;SDS011;25422;48.286;8.484;2024-03-08T00:27:06;73.97;;;35.70;;
39738;SDS011;25422;48.286;8.484;2024-03-08T00:29:32;73.03;;;34.83;;
39738;SDS011;25422;48.286;8.484;2024-03-08T00:31:57;73.75;;;34.85;;
39738;SDS011;25422;48.286;8.484;2024-03-08T00:34:23;71.30;;;33.55;;
39738;SDS011;25422;48.286;8.484;2024-03-08T00:36:48;69.82;;;32.28;;
39738;SDS011;25422;48.286;8.484;2024-03-08T00:39:14;68.38;;;32.47;;
39738;SDS011;25422;48.286;8.484;2024-03-08T00:41:39;64.63;;;31.85;;
39738;SDS011;25422;48.286;8.484;2024-03-08T00:44:05;67.85;;;32.25;;
39738;SDS011;25422;48.286;8.484;2024-03-08T00:46:30;67.72;;;31.80;;
39738;SDS011;25422;48.286;8.484;2024-03-08T00:48:56;67.93;;;32.63;;
39738;SDS011;25422;48.286;8.484;2024-03-08T00:51:22;66.00;;;31.08;;
39738;SDS011;25422;48.286;8.484;2024-03-08T00:53:47;67.50;;;32.35;;
39738;SDS011;25422;48.286;8.484;2024-03-08T00:56:13;64.80;;;30.58;;
39738;SDS011;25422;48.286;8.484;2024-03-08T00:58:38;66.95;;;31.80;;
39738;SDS011;25422;48.286;8.484;2024-03-08T01:01:04;66.53;;;30.77;;
39738;SDS011;25422;48.286;8.484;2024-03-08T01:03:30;61.90;;;30.08;;
39738;SDS011;25422;48.286;8.484;2024-03-08T01:05:59;72.40;;;31.85;;
39738;SDS011;25422;48.286;8.484;2024-03-08T01:08:28;70.18;;;31.30;;
39738;SDS011;25422;48.286;8.484;2024-03-08T01:10:53;66.38;;;31.25;;
39738;SDS011;25422;48.286;8.484;2024-03-08T01:13:19;69.78;;;32.42;;
39738;SDS011;25422;48.286;8.484;2024-03-08T01:15:45;62.42;;;31.02;;
39738;SDS011;25422;48.286;8.484;2024-03-08T01:18:11;65.85;;;31.45;;
39738;SDS011;25422;48.286;8.484;2024-03-08T01:20:36;67.25;;;30.65;;
39738;SDS011;25422;48.286;8.484;2024-03-08T01:23:02;64.55;;;30.92;;
39738;SDS011;25422;48.286;8.484;2024-03-08T01:25:28;72.90;;;32.80;;
39738;SDS011;25422;48.286;8.484;2024-03-08T01:27:54;59.72;;;30.23;;
39738;SDS011;25422;48.286;8.484;2024-03-08T01:30:19;66.03;;;30.90;;
39738;SDS011;25422;48.286;8.484;2024-03-08T01:32:45;67.70;;;30.38;;
39738;SDS011;25422;48.286;8.484;2024-03-08T01:35:10;65.72;;;30.70;;
39738;SDS011;25422;48.286;8.484;2024-03-08T01:37:36;65.45;;;30.85;;
39738;SDS011;25422;48.286;8.484;2024-03-08T01:40:01;57.90;;;28.77;;
39738;SDS011;25422;48.286;8.484;2024-03-08T01:42:28;62.33;;;29.67;;
39738;SDS011;25422;48.286;8.484;2024-03-08T01:44:54;66.18;;;30.73;;
39738;SDS011;25422;48.286;8.484;2024-03-08T01:47:19;59.28;;;27.58;;
39738;SDS011;25422;48.286;8.484;2024-03-08T01:49:48;60.50;;;29.27;;
39738;SDS011;25422;48.286;8.484;2024-03-08T01:52:15;61.78;;;28.67;;
39738;SDS011;25422;48.286;8.484;2024-03-08T01:54:43;67.32;;;29.67;;
39738;SDS011;25422;48.286;8.484;2024-03-08T01:57:10;61.78;;;29.65;;
39738;SDS011;25422;48.286;8.484;2024-03-08T01:59:36;66.80;;;30.88;;
39738;SDS011;25422;48.286;8.484;2024-03-08T02:02:02;60.65;;;29.08;;
39738;SDS011;25422;48.286;8.484;2024-03-08T02:04:30;64.47;;;30.67;;
39738;SDS011;25422;48.286;8.484;2024-03-08T02:06:58;63.57;;;29.90;;
39738;SDS011;25422;48.286;8.484;2024-03-08T02:09:24;61.33;;;29.15;;
39738;SDS011;25422;48.286;8.484;2024-03-08T02:11:50;64.45;;;30.20;;
39738;SDS011;25422;48.286;8.484;2024-03-08T02:14:16;63.92;;;29.42;;
39738;SDS011;25422;48.286;8.484;2024-03-08T02:16:43;64.05;;;29.95;;
39738;SDS011;25422;48.286;8.484;2024-03-08T02:19:09;67.40;;;30.92;;
39738;SDS011;25422;48.286;8.484;2024-03-08T02:21:35;70.63;;;31.10;;
39738;SDS011;25422;48.286;8.484;2024-03-08T02:24:01;65.13;;;29.33;;
39738;SDS011;25422;48.286;8.484;2024-03-08T02:26:26;73.85;;;31.52;;
39738;SDS011;25422;48.286;8.484;2024-03-08T02:28:52;72.40;;;32.40;;
39738;SDS011;25422;48.286;8.484;2024-03-08T02:31:18;67.50;;;31.15;;
39738;SDS011;25422;48.286;8.484;2024-03-08T02:33:43;67.38;;;29.58;;
39738;SDS011;25422;48.286;8.484;2024-03-08T02:36:08;69.20;;;31.73;;
39738;SDS011;25422;48.286;8.484;2024-03-08T02:38:34;71.20;;;31.92;;
39738;SDS011;25422;48.286;8.484;2024-03-08T02:40:59;64.20;;;30.38;;
39738;SDS011;25422;48.286;8.484;2024-03-08T02:43:25;62.38;;;30.15;;
39738;SDS011;25422;48.286;8.484;2024-03-08T02:45:50;67.50;;;31.83;;
39738;SDS011;25422;48.286;8.484;2024-03-08T02:48:18;63.33;;;31.23;;
39738;SDS011;25422;48.286;8.484;2024-03-08T02:50:43;69.03;;;32.03;;
39738;SDS011;25422;48.286;8.484;2024-03-08T02:53:09;63.53;;;30.88;;
39738;SDS011;25422;48.286;8.484;2024-03-08T02:55:36;69.45;;;31.50;;
39738;SDS011;25422;48.286;8.484;2024-03-08T02:58:06;63.70;;;29.88;;
39738;SDS011;25422;48.286;8.484;2024-03-08T03:00:35;62.03;;;29.50;;
39738;SDS011;25422;48.286;8.484;2024-03-08T03:03:04;66.13;;;30.27;;
39738;SDS011;25422;48.286;8.484;2024-03-08T03:05:29;65.57;;;30.52;;
39738;SDS011;25422;48.286;8.484;2024-03-08T03:07:55;64.05;;;31.15;;
39738;SDS011;25422;48.286;8.484;2024-03-08T03:10:22;62.90;;;30.73;;
39738;SDS011;25422;48.286;8.484;2024-03-08T03:12:48;62.22;;;30.55;;
39738;SDS011;25422;48.286;8.484;2024-03-08T03:15:14;78.15;;;31.67;;
39738;SDS011;25422;48.286;8.484;2024-03-08T03:17:45;72.57;;;32.38;;
39738;SDS011;25422;48.286;8.484;2024-03-08T03:20:11;67.05;;;30.83;;
39738;SDS011;25422;48.286;8.484;2024-03-08T03:22:47;67.40;;;30.60;;
39738;SDS011;25422;48.286;8.484;2024-03-08T03:25:17;61.45;;;30.23;;
39738;SDS011;25422;48.286;8.484;2024-03-08T03:27:54;65.75;;;29.95;;
39738;SDS011;25422;48.286;8.484;2024-03-08T03:30:22;59.38;;;30.38;;
39738;SDS011;25422;48.286;8.484;2024-03-08T03:32:48;64.85;;;29.85;;
39738;SDS011;25422;48.286;8.484;2024-03-08T03:35:16;61.33;;;30.38;;
39738;SDS011;25422;48.286;8.484;2024-03-08T03:37:42;62.80;;;31.20;;
39738;SDS011;25422;48.286;8.484;2024-03-08T03:40:10;64.57;;;30.60;;
39738;SDS011;25422;48.286;8.484;2024-03-08T03:42:37;63.15;;;29.92;;
39738;SDS011;25422;48.286;8.484;2024-03-08T03:45:04;61.42;;;28.95;;
39738;SDS011;25422;48.286;8.484;2024-03-08T03:47:34;62.78;;;30.33;;
39738;SDS011;25422;48.286;8.484;2024-03-08T03:50:00;62.35;;;31.45;;
39738;SDS011;25422;48.286;8.484;2024-03-08T03:52:27;66.78;;;32.08;;
39738;SDS011;25422;48.286;8.484;2024-03-08T03:54:53;66.38;;;32.42;;
39738;SDS011;25422;48.286;8.484;2024-03-08T03:57:18;67.22;;;30.70;;
39738;SDS011;25422;48.286;8.484;2024-03-08T04:02:13;63.20;;;32.00;;
39738;SDS011;25422;48.286;8.484;2024-03-08T04:04:38;63.75;;;31.52;;
39738;SDS011;25422;48.286;8.484;2024-03-08T04:07:04;65.88;;;32.53;;
39738;SDS011;25422;48.286;8.484;2024-03-08T04:09:30;66.72;;;31.58;;
39738;SDS011;25422;48.286;8.484;2024-03-08T04:11:55;62.70;;;31.98;;
39738;SDS011;25422;48.286;8.484;2024-03-08T04:14:22;62.03;;;31.88;;
39738;SDS011;25422;48.286;8.484;2024-03-08T04:16:48;63.10;;;30.90;;
39738;SDS011;25422;48.286;8.484;2024-03-08T04:19:14;64.65;;;32.17;;
39738;SDS011;25422;48.286;8.484;2024-03-08T04:21:39;67.10;;;32.92;;
39738;SDS011;25422;48.286;8.484;2024-03-08T04:24:05;65.70;;;32.03;;
39738;SDS011;25422;48.286;8.484;2024-03-08T04:26:30;65.18;;;30.77;;
39738;SDS011;25422;48.286;8.484;2024-03-08T04:28:56;61.28;;;30.10;;
39738;SDS011;25422;48.286;8.484;2024-03-08T04:31:22;59.78;;;30.33;;
39738;SDS011;25422;48.286;8.484;2024-03-08T04:33:47;57.75;;;28.75;;
39738;SDS011;25422;48.286;8.484;2024-03-08T04:36:13;63.70;;;29.55;;
39738;SDS011;25422;48.286;8.484;2024-03-08T04:38:39;58.38;;;29.25;;
39738;SDS011;25422;48.286;8.484;2024-03-08T04:41:06;59.30;;;29.83;;
39738;SDS011;25422;48.286;8.484;2024-03-08T04:43:32;61.92;;;30.33;;
39738;SDS011;25422;48.286;8.484;2024-03-08T04:45:57;58.50;;;29.33;;
39738;SDS011;25422;48.286;8.484;2024-03-08T04:48:23;57.88;;;29.45;;
39738;SDS011;25422;48.286;8.484;2024-03-08T04:50:52;62.22;;;30.02;;
39738;SDS011;25422;48.286;8.484;2024-03-08T04:53:18;58.28;;;28.48;;
39738;SDS011;25422;48.286;8.484;2024-03-08T04:55:44;58.97;;;31.27;;
39738;SDS011;25422;48.286;8.484;2024-03-08T04:58:10;56.75;;;28.85;;
39738;SDS011;25422;48.286;8.484;2024-03-08T05:00:35;59.08;;;29.85;;
39738;SDS011;25422;48.286;8.484;2024-03-08T05:03:00;53.90;;;28.67;;
39738;SDS011;25422;48.286;8.484;2024-03-08T05:05:26;57.95;;;29.25;;
39738;SDS011;25422;48.286;8.484;2024-03-08T05:07:53;58.88;;;28.35;;
39738;SDS011;25422;48.286;8.484;2024-03-08T05:10:18;59.65;;;29.33;;
39738;SDS011;25422;48.286;8.484;2024-03-08T05:12:44;58.83;;;30.23;;
39738;SDS011;25422;48.286;8.484;2024-03-08T05:15:10;60.72;;;28.70;;
39738;SDS011;25422;48.286;8.484;2024-03-08T05:17:35;57.88;;;29.60;;
39738;SDS011;25422;48.286;8.484;2024-03-08T05:20:01;59.80;;;30.50;;
39738;SDS011;25422;48.286;8.484;2024-03-08T05:22:26;61.92;;;29.58;;
39738;SDS011;25422;48.286;8.484;2024-03-08T05:24:51;58.95;;;30.30;;
39738;SDS011;25422;48.286;8.484;2024-03-08T05:27:17;58.28;;;27.55;;
39738;SDS011;25422;48.286;8.484;2024-03-08T05:29:42;56.45;;;28.67;;
39738;SDS011;25422;48.286;8.484;2024-03-08T05:32:08;57.30;;;28.50;;
39738;SDS011;25422;48.286;8.484;2024-03-08T05:34:35;64.80;;;29.42;;
39738;SDS011;25422;48.286;8.484;2024-03-08T05:37:00;55.08;;;26.63;;
39738;SDS011;25422;48.286;8.484;2024-03-08T05:39:26;56.05;;;27.13;;
39738;SDS011;25422;48.286;8.484;2024-03-08T05:41:52;55.92;;;27.55;;
39738;SDS011;25422;48.286;8.484;2024-03-08T05:44:17;53.08;;;27.83;;
39738;SDS011;25422;48.286;8.484;2024-03-08T05:46:43;58.70;;;29.38;;
39738;SDS011;25422;48.286;8.484;2024-03-08T05:49:09;55.47;;;28.27;;
39738;SDS011;25422;48.286;8.484;2024-03-08T05:51:35;80.45;;;37.47;;
39738;SDS011;25422;48.286;8.484;2024-03-08T05:54:03;76.63;;;36.28;;
39738;SDS011;25422;48.286;8.484;2024-03-08T05:56:33;56.20;;;27.80;;
39738;SDS011;25422;48.286;8.484;2024-03-08T05:58:59;53.38;;;26.30;;
39738;SDS011;25422;48.286;8.484;2024-03-08T06:01:25;52.15;;;25.83;;
39738;SDS011;25422;48.286;8.484;2024-03-08T06:03:52;55.22;;;27.65;;
39738;SDS011;25422;48.286;8.484;2024-03-08T06:06:20;57.20;;;27.10;;
39738;SDS011;25422;48.286;8.484;2024-03-08T06:08:46;52.50;;;26.23;;
39738;SDS011;25422;48.286;8.484;2024-03-08T06:11:14;50.05;;;25.00;;
39738;SDS011;25422;48.286;8.484;2024-03-08T06:13:40;52.15;;;26.02;;
39738;SDS011;25422;48.286;8.484;2024-03-08T06:16:05;52.33;;;26.35;;
39738;SDS011;25422;48.286;8.484;2024-03-08T06:18:33;49.58;;;25.70;;
39738;SDS011;25422;48.286;8.484;2024-03-08T06:21:02;47.72;;;25.25;;
39738;SDS011;25422;48.286;8.484;2024-03-08T06:23:37;53.40;;;26.92;;
39738;SDS011;25422;48.286;8.484;2024-03-08T06:26:05;51.63;;;25.20;;
39738;SDS011;25422;48.286;8.484;2024-03-08T06:28:31;53.63;;;26.90;;
39738;SDS011;25422;48.286;8.484;2024-03-08T06:31:03;51.67;;;25.13;;
39738;SDS011;25422;48.286;8.484;2024-03-08T06:33:28;49.35;;;24.58;;
39738;SDS011;25422;48.286;8.484;2024-03-08T06:35:54;50.20;;;25.30;;
39738;SDS011;25422;48.286;8.484;2024-03-08T06:38:25;48.80;;;24.45;;
39738;SDS011;25422;48.286;8.484;2024-03-08T06:40:52;49.42;;;25.00;;
39738;SDS011;25422;48.286;8.484;2024-03-08T06:43:18;51.38;;;24.27;;
39738;SDS011;25422;48.286;8.484;2024-03-08T06:45:46;49.53;;;24.20;;
39738;SDS011;25422;48.286;8.484;2024-03-08T06:48:15;48.13;;;24.38;;
39738;SDS011;25422;48.286;8.484;2024-03-08T06:50:44;50.22;;;23.92;;
39738;SDS011;25422;48.286;8.484;2024-03-08T06:53:10;47.20;;;24.33;;
39738;SDS011;25422;48.286;8.484;2024-03-08T06:55:36;45.58;;;24.10;;
39738;SDS011;25422;48.286;8.484;2024-03-08T06:58:02;46.28;;;23.65;;
39738;SDS011;25422;48.286;8.484;2024-03-08T07:00:27;49.40;;;24.40;;
39738;SDS011;25422;48.286;8.484;2024-03-08T07:02:55;49.22;;;23.45;;
39738;SDS011;25422;48.286;8.484;2024-03-08T07:05:22;52.42;;;23.42;;
39738;SDS011;25422;48.286;8.484;2024-03-08T07:07:49;47.38;;;22.80;;
39738;SDS011;25422;48.286;8.484;2024-03-08T07:10:16;49.75;;;24.42;;
39738;SDS011;25422;48.286;8.484;2024-03-08T07:12:41;49.08;;;25.10;;
39738;SDS011;25422;48.286;8.484;2024-03-08T07:15:08;50.17;;;24.20;;
39738;SDS011;25422;48.286;8.484;2024-03-08T07:17:38;51.65;;;25.20;;
39738;SDS011;25422;48.286;8.484;2024-03-08T07:20:05;49.15;;;23.48;;
39738;SDS011;25422;48.286;8.484;2024-03-08T07:22:36;45.25;;;22.42;;
39738;SDS011;25422;48.286;8.484;2024-03-08T07:25:02;46.90;;;24.00;;
39738;SDS011;25422;48.286;8.484;2024-03-08T07:27:48;51.38;;;24.15;;
39738;SDS011;25422;48.286;8.484;2024-03-08T07:30:14;47.55;;;23.73;;
39738;SDS011;25422;48.286;8.484;2024-03-08T07:33:02;45.50;;;22.50;;
39738;SDS011;25422;48.286;8.484;2024-03-08T07:35:28;49.90;;;22.50;;
39738;SDS011;25422;48.286;8.484;2024-03-08T07:37:54;46.15;;;23.20;;
39738;SDS011;25422;48.286;8.484;2024-03-08T07:40:20;49.03;;;24.25;;
39738;SDS011;25422;48.286;8.484;2024-03-08T07:42:46;49.38;;;23.77;;
39738;SDS011;25422;48.286;8.484;2024-03-08T07:45:12;47.67;;;23.42;;
39738;SDS011;25422;48.286;8.484;2024-03-08T07:47:38;46.25;;;23.48;;
39738;SDS011;25422;48.286;8.484;2024-03-08T07:50:03;49.58;;;24.27;;
39738;SDS011;25422;48.286;8.484;2024-03-08T07:52:29;47.47;;;23.27;;
39738;SDS011;25422;48.286;8.484;2024-03-08T07:54:55;46.13;;;23.35;;
39738;SDS011;25422;48.286;8.484;2024-03-08T07:57:20;50.97;;;24.00;;
39738;SDS011;25422;48.286;8.484;2024-03-08T07:59:46;56.22;;;24.48;;
39738;SDS011;25422;48.286;8.484;2024-03-08T08:02:11;52.35;;;25.50;;
39738;SDS011;25422;48.286;8.484;2024-03-08T08:04:36;55.78;;;24.55;;
39738;SDS011;25422;48.286;8.484;2024-03-08T08:07:03;49.45;;;23.65;;
39738;SDS011;25422;48.286;8.484;2024-03-08T08:09:29;51.35;;;24.17;;
39738;SDS011;25422;48.286;8.484;2024-03-08T08:11:59;51.75;;;24.08;;
39738;SDS011;25422;48.286;8.484;2024-03-08T08:14:29;53.45;;;25.15;;
39738;SDS011;25422;48.286;8.484;2024-03-08T08:16:54;50.78;;;24.50;;
39738;SDS011;25422;48.286;8.484;2024-03-08T08:19:22;50.58;;;24.30;;
39738;SDS011;25422;48.286;8.484;2024-03-08T08:21:48;45.38;;;23.75;;
39738;SDS011;25422;48.286;8.484;2024-03-08T08:24:14;49.92;;;24.05;;
39738;SDS011;25422;48.286;8.484;2024-03-08T08:26:40;43.92;;;22.50;;
39738;SDS011;25422;48.286;8.484;2024-03-08T08:29:06;47.33;;;23.40;;
39738;SDS011;25422;48.286;8.484;2024-03-08T08:31:31;45.72;;;22.35;;
39738;SDS011;25422;48.286;8.484;2024-03-08T08:33:58;42.15;;;21.67;;
39738;SDS011;25422;48.286;8.484;2024-03-08T08:36:24;44.92;;;23.40;;
39738;SDS011;25422;48.286;8.484;2024-03-08T08:38:49;42.55;;;21.75;;
39738;SDS011;25422;48.286;8.484;2024-03-08T08:41:15;42.88;;;21.85;;
39738;SDS011;25422;48.286;8.484;2024-03-08T08:43:42;41.33;;;21.13;;
39738;SDS011;25422;48.286;8.484;2024-03-08T08:46:09;44.28;;;21.45;;
39738;SDS011;25422;48.286;8.484;2024-03-08T08:48:41;43.03;;;22.42;;
39738;SDS011;25422;48.286;8.484;2024-03-08T08:51:07;45.33;;;21.17;;
39738;SDS011;25422;48.286;8.484;2024-03-08T08:53:38;40.75;;;19.50;;
39738;SDS011;25422;48.286;8.484;2024-03-08T08:56:06;35.85;;;18.50;;
39738;SDS011;25422;48.286;8.484;2024-03-08T08:58:33;35.90;;;18.55;;
39738;SDS011;25422;48.286;8.484;2024-03-08T09:00:58;42.40;;;19.52;;
39738;SDS011;25422;48.286;8.484;2024-03-08T09:03:24;35.88;;;18.25;;
39738;SDS011;25422;48.286;8.484;2024-03-08T09:05:52;36.58;;;18.23;;
39738;SDS011;25422;48.286;8.484;2024-03-08T09:08:17;38.17;;;18.80;;
39738;SDS011;25422;48.286;8.484;2024-03-08T09:10:43;37.55;;;19.48;;
39738;SDS011;25422;48.286;8.484;2024-03-08T09:13:08;38.53;;;18.73;;
39738;SDS011;25422;48.286;8.484;2024-03-08T09:15:35;41.13;;;20.00;;
39738;SDS011;25422;48.286;8.484;2024-03-08T09:18:01;39.58;;;20.35;;
39738;SDS011;25422;48.286;8.484;2024-03-08T09:20:27;40.00;;;20.70;;
39738;SDS011;25422;48.286;8.484;2024-03-08T09:22:53;36.55;;;19.33;;
39738;SDS011;25422;48.286;8.484;2024-03-08T09:25:19;37.50;;;19.42;;
39738;SDS011;25422;48.286;8.484;2024-03-08T09:27:45;37.00;;;19.33;;
39738;SDS011;25422;48.286;8.484;2024-03-08T09:30:11;36.00;;;18.73;;
39738;SDS011;25422;48.286;8.484;2024-03-08T09:32:38;33.85;;;18.05;;
39738;SDS011;25422;48.286;8.484;2024-03-08T09:35:03;35.42;;;18.33;;
39738;SDS011;25422;48.286;8.484;2024-03-08T09:37:32;38.58;;;18.95;;
39738;SDS011;25422;48.286;8.484;2024-03-08T09:39:59;37.13;;;18.05;;
39738;SDS011;25422;48.286;8.484;2024-03-08T09:42:24;32.60;;;17.33;;
39738;SDS011;25422;48.286;8.484;2024-03-08T09:44:50;33.50;;;17.98;;
39738;SDS011;25422;48.286;8.484;2024-03-08T09:47:16;30.67;;;16.77;;
39738;SDS011;25422;48.286;8.484;2024-03-08T09:49:43;31.20;;;17.02;;
39738;SDS011;25422;48.286;8.484;2024-03-08T09:52:09;28.58;;;15.40;;
39738;SDS011;25422;48.286;8.484;2024-03-08T09:54:35;27.25;;;15.65;;
39738;SDS011;25422;48.286;8.484;2024-03-08T09:57:01;28.13;;;16.52;;
39738;SDS011;25422;48.286;8.484;2024-03-08T09:59:33;28.42;;;16.27;;
39738;SDS011;25422;48.286;8.484;2024-03-08T10:02:01;27.35;;;14.90;;
39738;SDS011;25422;48.286;8.484;2024-03-08T10:04:28;28.25;;;16.60;;
39738;SDS011;25422;48.286;8.484;2024-03-08T10:06:57;26.90;;;15.30;;
39738;SDS011;25422;48.286;8.484;2024-03-08T10:09:24;28.83;;;15.73;;
39738;SDS011;25422;48.286;8.484;2024-03-08T10:11:58;25.98;;;15.13;;
39738;SDS011;25422;48.286;8.484;2024-03-08T10:14:24;30.25;;;15.50;;
39738;SDS011;25422;48.286;8.484;2024-03-08T10:16:51;26.85;;;15.43;;
39738;SDS011;25422;48.286;8.484;2024-03-08T10:19:17;26.75;;;15.32;;
39738;SDS011;25422;48.286;8.484;2024-03-08T10:21:49;25.60;;;15.25;;
39738;SDS011;25422;48.286;8.484;2024-03-08T10:24:17;25.65;;;15.20;;
39738;SDS011;25422;48.286;8.484;2024-03-08T10:26:42;27.90;;;16.08;;
39738;SDS011;25422;48.286;8.484;2024-03-08T10:29:09;25.45;;;15.20;;
39738;SDS011;25422;48.286;8.484;2024-03-08T10:31:34;24.27;;;14.20;;
39738;SDS011;25422;48.286;8.484;2024-03-08T10:34:00;25.40;;;15.40;;
39738;SDS011;25422;48.286;8.484;2024-03-08T10:36:27;22.10;;;14.98;;
39738;SDS011;25422;48.286;8.484;2024-03-08T10:38:53;24.17;;;14.50;;
39738;SDS011;25422;48.286;8.484;2024-03-08T10:41:22;25.45;;;15.02;;
39738;SDS011;25422;48.286;8.484;2024-03-08T10:49:00;22.27;;;12.82;;
39738;SDS011;25422;48.286;8.484;2024-03-08T10:53:56;20.95;;;13.35;;
39738;SDS011;25422;48.286;8.484;2024-03-08T10:57:12;22.17;;;13.85;;
39738;SDS011;25422;48.286;8.484;2024-03-08T10:59:39;21.17;;;13.65;;
39738;SDS011;25422;48.286;8.484;2024-03-08T11:02:04;21.23;;;14.13;;
39738;SDS011;25422;48.286;8.484;2024-03-08T11:04:31;20.40;;;13.00;;
39738;SDS011;25422;48.286;8.484;2024-03-08T11:07:01;18.50;;;13.10;;
39738;SDS011;25422;48.286;8.484;2024-03-08T11:09:37;21.35;;;12.98;;
39738;SDS011;25422;48.286;8.484;2024-03-08T11:15:00;20.48;;;12.73;;
39738;SDS011;25422;48.286;8.484;2024-03-08T11:19:57;18.83;;;12.50;;
39738;SDS011;25422;48.286;8.484;2024-03-08T11:22:31;19.80;;;13.25;;
39738;SDS011;25422;48.286;8.484;2024-03-08T11:25:01;21.52;;;14.40;;
39738;SDS011;25422;48.286;8.484;2024-03-08T11:27:28;20.02;;;13.10;;
39738;SDS011;25422;48.286;8.484;2024-03-08T11:30:02;18.63;;;12.68;;
39738;SDS011;25422;48.286;8.484;2024-03-08T11:32:34;20.02;;;13.52;;
39738;SDS011;25422;48.286;8.484;2024-03-08T11:35:00;18.45;;;12.80;;
39738;SDS011;25422;48.286;8.484;2024-03-08T11:37:30;22.75;;;15.60;;
39738;SDS011;25422;48.286;8.484;2024-03-08T11:39:59;25.10;;;17.38;;
39738;SDS011;25422;48.286;8.484;2024-03-08T11:42:26;14.93;;;11.48;;
39738;SDS011;25422;48.286;8.484;2024-03-08T11:44:52;15.93;;;11.32;;
39738;SDS011;25422;48.286;8.484;2024-03-08T11:47:18;17.00;;;12.55;;
39738;SDS011;25422;48.286;8.484;2024-03-08T11:49:44;16.17;;;12.13;;
39738;SDS011;25422;48.286;8.484;2024-03-08T11:52:13;16.70;;;11.75;;
39738;SDS011;25422;48.286;8.484;2024-03-08T11:54:39;15.10;;;10.43;;
39738;SDS011;25422;48.286;8.484;2024-03-08T11:57:17;16.17;;;10.80;;
39738;SDS011;25422;48.286;8.484;2024-03-08T11:59:49;14.82;;;10.40;;
39738;SDS011;25422;48.286;8.484;2024-03-08T12:02:15;18.23;;;10.90;;
39738;SDS011;25422;48.286;8.484;2024-03-08T12:04:41;14.77;;;11.02;;
39738;SDS011;25422;48.286;8.484;2024-03-08T12:07:09;13.85;;;10.57;;
39738;SDS011;25422;48.286;8.484;2024-03-08T12:09:35;17.38;;;12.68;;
39738;SDS011;25422;48.286;8.484;2024-03-08T12:12:01;13.70;;;11.25;;
39738;SDS011;25422;48.286;8.484;2024-03-08T12:14:29;14.68;;;11.15;;
39738;SDS011;25422;48.286;8.484;2024-03-08T12:16:55;15.35;;;11.40;;
39738;SDS011;25422;48.286;8.484;2024-03-08T12:19:21;14.45;;;10.85;;
39738;SDS011;25422;48.286;8.484;2024-03-08T12:21:46;13.60;;;11.00;;
39738;SDS011;25422;48.286;8.484;2024-03-08T12:24:17;13.80;;;10.68;;
39738;SDS011;25422;48.286;8.484;2024-03-08T12:26:46;13.70;;;11.05;;
39738;SDS011;25422;48.286;8.484;2024-03-08T12:29:17;13.25;;;10.90;;
39738;SDS011;25422;48.286;8.484;2024-03-08T12:31:54;13.82;;;10.60;;
39738;SDS011;25422;48.286;8.484;2024-03-08T12:34:23;14.30;;;10.80;;
39738;SDS011;25422;48.286;8.484;2024-03-08T12:36:50;14.32;;;10.48;;
39738;SDS011;25422;48.286;8.484;2024-03-08T12:39:19;14.75;;;11.32;;
39738;SDS011;25422;48.286;8.484;2024-03-08T12:41:52;12.35;;;9.85;;
39738;SDS011;25422;48.286;8.484;2024-03-08T12:44:18;13.70;;;10.20;;
39738;SDS011;25422;48.286;8.484;2024-03-08T12:46:46;13.73;;;10.93;;
39738;SDS011;25422;48.286;8.484;2024-03-08T12:49:13;12.63;;;10.30;;
39738;SDS011;25422;48.286;8.484;2024-03-08T12:51:43;15.57;;;11.85;;
39738;SDS011;25422;48.286;8.484;2024-03-08T12:54:09;12.45;;;10.32;;
39738;SDS011;25422;48.286;8.484;2024-03-08T12:56:34;13.43;;;10.40;;
39738;SDS011;25422;48.286;8.484;2024-03-08T12:59:03;19.48;;;12.65;;
39738;SDS011;25422;48.286;8.484;2024-03-08T13:01:30;12.65;;;10.60;;
39738;SDS011;25422;48.286;8.484;2024-03-08T13:06:28;15.90;;;10.60;;
39738;SDS011;25422;48.286;8.484;2024-03-08T13:08:56;13.30;;;10.80;;
39738;SDS011;25422;48.286;8.484;2024-03-08T13:11:23;13.07;;;10.52;;
39738;SDS011;25422;48.286;8.484;2024-03-08T13:13:52;13.73;;;11.40;;
39738;SDS011;25422;48.286;8.484;2024-03-08T13:16:17;12.65;;;10.80;;
39738;SDS011;25422;48.286;8.484;2024-03-08T13:18:44;14.98;;;11.50;;
39738;SDS011;25422;48.286;8.484;2024-03-08T13:21:13;16.45;;;11.13;;
39738;SDS011;25422;48.286;8.484;2024-03-08T13:23:40;17.30;;;11.05;;
39738;SDS011;25422;48.286;8.484;2024-03-08T13:26:10;15.27;;;11.90;;
39738;SDS011;25422;48.286;8.484;2024-03-08T13:28:43;15.18;;;12.77;;
39738;SDS011;25422;48.286;8.484;2024-03-08T13:31:10;15.10;;;11.60;;
39738;SDS011;25422;48.286;8.484;2024-03-08T13:33:36;17.80;;;12.60;;
39738;SDS011;25422;48.286;8.484;2024-03-08T13:36:04;19.20;;;14.38;;
39738;SDS011;25422;48.286;8.484;2024-03-08T13:38:42;21.27;;;15.95;;
39738;SDS011;25422;48.286;8.484;2024-03-08T13:41:09;17.60;;;13.00;;
39738;SDS011;25422;48.286;8.484;2024-03-08T13:43:36;17.15;;;13.25;;
39738;SDS011;25422;48.286;8.484;2024-03-08T13:46:02;18.83;;;13.25;;
39738;SDS011;25422;48.286;8.484;2024-03-08T13:48:28;19.58;;;14.18;;
39738;SDS011;25422;48.286;8.484;2024-03-08T13:50:53;18.63;;;13.20;;
39738;SDS011;25422;48.286;8.484;2024-03-08T13:53:20;19.90;;;14.18;;
39738;SDS011;25422;48.286;8.484;2024-03-08T13:55:46;25.23;;;14.18;;
39738;SDS011;25422;48.286;8.484;2024-03-08T13:58:11;23.45;;;14.70;;
39738;SDS011;25422;48.286;8.484;2024-03-08T14:00:39;20.55;;;13.52;;
39738;SDS011;25422;48.286;8.484;2024-03-08T14:03:06;18.42;;;13.70;;
39738;SDS011;25422;48.286;8.484;2024-03-08T14:05:32;20.48;;;14.15;;
39738;SDS011;25422;48.286;8.484;2024-03-08T14:08:01;21.55;;;14.52;;
39738;SDS011;25422;48.286;8.484;2024-03-08T14:10:30;20.80;;;14.35;;
39738;SDS011;25422;48.286;8.484;2024-03-08T14:12:56;21.08;;;13.90;;
39738;SDS011;25422;48.286;8.484;2024-03-08T14:15:22;21.38;;;15.48;;
39738;SDS011;25422;48.286;8.484;2024-03-08T14:17:54;22.15;;;13.98;;
39738;SDS011;25422;48.286;8.484;2024-03-08T14:20:20;21.45;;;15.15;;
39738;SDS011;25422;48.286;8.484;2024-03-08T14:22:50;22.35;;;16.17;;
39738;SDS011;25422;48.286;8.484;2024-03-08T14:25:17;24.08;;;14.93;;
39738;SDS011;25422;48.286;8.484;2024-03-08T14:27:46;21.67;;;14.32;;
39738;SDS011;25422;48.286;8.484;2024-03-08T14:30:12;16.23;;;11.90;;
39738;SDS011;25422;48.286;8.484;2024-03-08T14:32:38;21.10;;;14.52;;
39738;SDS011;25422;48.286;8.484;2024-03-08T14:35:06;23.55;;;15.68;;
39738;SDS011;25422;48.286;8.484;2024-03-08T14:37:33;22.75;;;15.32;;